Grand Junction, CO

7:36 PM MDT on October 20, 2014 (GMT -0600)
Chipeta Ave south of Washington Park | Change Station
CLOSE
Current Station
Personal Weather Station
Location: Grand Junction, CO
Elevation: 1402 m
Nearby Weather Stations

Elev 1402 m 39.07 °N, 108.56 °W | Updated 3 seconds ago

Clear
Clear
17.1 °C
Feels Like 17.1 °C
N
0.0
Wind Variable Wind from NW
Gusts 0.0 km/h

Today
High -- | Low -- °C
--% Chance of Precip.
Yesterday
High -- | Low -- °C
Precip. -- mm
7:28 AM 6:28 PM
Waning Crescent, 8% visible
Pressure 1014 hPa
Visibility 16.1 kilometers
Clouds Clear
Dew Point 7 °C
Humidity 50%
Rainfall 0 mm
Snow Depth Not available.
UV 0 out of 12
Pollen 1.80 out of 12
Air Quality Not available.
Flu Activity Sporadic
METAR KGJT 210053Z 00000KT 10SM CLR 15/02 A3004 RMK AO2 SLP142 T01500022

More Conditions Fewer Conditions

Pressure 1014 hPa
Visibility 16.1 kilometers
Clouds Clear
Dew Point 7 °C
Humidity 50%
Rainfall 0 mm
Snow Depth Not available.
UV 0 out of 12
Pollen 1.80 out of 12
Air Quality Not available.
Flu Activity Sporadic
METAR KGJT 210053Z 00000KT 10SM CLR 15/02 A3004 RMK AO2 SLP142 T01500022

More Conditions Fewer Conditions

10-Day Weather Forecast

Almanac

Astronomy

Oct. 20, 2014 Rise Set
Actual Time 7:28 AM MDT 6:28 PM MDT
Civil Twilight 7:01 AM MDT 6:55 PM MDT
Nautical Twilight 6:30 AM MDT 7:26 PM MDT
Astronomical Twilight 5:59 AM MDT 7:57 PM MDT
Moon 4:21 AM MDT (10/20) 4:51 PM MDT (10/20)
Length of Visible Light 11h 53m
Length of Day
10h 59m
Tomorrow will be 2m 24s shorter.
Waning Crescent, 8% of the Moon is Illuminated
Today
Waning Crescent
Oct 23
New
Oct 30
First Quarter
Nov 6
Full
Nov 14
Last Quarter

Today's Extremes

State Highs State Lows

Community

WunderPhotos

Upload Photos

1,763,579 photos uploaded!

Nearby

Snow Depth

Station Depth Elevation
Overland Reservoir 0 in 9880 ft
North Lost Trail 0 in 9200 ft
Burro Mountain 0 in 9400 ft
Bison Lake 1 in 10880 ft
Schofield Pass 0 in 10700 ft

Earthquake Activity

City Distance Mag. Time & Date
No recent earthquake activity has been reported nearby.
Minimum magnitude displayed is 2.5.

Coastal Water Temperatures

Place Temperature
No Stations Reporting

Nearby Weather Stations